createdAt,value
2022-11-27T00:01:39.869Z,101500.83
2022-11-27T00:04:12.227Z,101497.41
2022-11-27T00:06:44.195Z,101494.00
2022-11-27T00:09:16.537Z,101494.88
2022-11-27T00:11:47.906Z,101501.76
2022-11-27T00:14:19.265Z,101499.23
2022-11-27T00:16:50.553Z,101498.34
2022-11-27T00:19:21.493Z,101505.22
2022-11-27T00:21:52.376Z,101498.44
2022-11-27T00:24:23.093Z,101505.31
2022-11-27T00:26:54.082Z,101506.15
2022-11-27T00:29:27.067Z,101500.17
2022-11-27T00:31:58.393Z,101505.22
2022-11-27T00:34:29.337Z,101499.23
2022-11-27T00:37:00.591Z,101512.19
2022-11-27T00:39:31.731Z,101509.57
2022-11-27T00:42:02.714Z,101500.97
2022-11-27T00:44:34.491Z,101502.70
2022-11-27T00:47:05.424Z,101503.48
2022-11-27T00:49:36.325Z,101510.37
2022-11-27T00:52:07.441Z,101502.59
2022-11-27T00:54:38.504Z,101499.14
2022-11-27T00:57:09.608Z,101502.55
2022-11-27T00:59:40.706Z,101508.55
2022-11-27T01:02:11.590Z,101501.67
2022-11-27T01:04:42.656Z,101499.98
2022-11-27T01:07:13.576Z,101501.76
2022-11-27T01:09:45.198Z,101506.06
2022-11-27T01:12:16.059Z,101505.22
2022-11-27T01:14:47.438Z,101505.22
2022-11-27T01:17:18.497Z,101502.65
2022-11-27T01:19:49.547Z,101502.65
2022-11-27T01:22:20.765Z,101497.55
2022-11-27T01:24:51.601Z,101491.56
2022-11-27T01:27:22.494Z,101500.17
2022-11-27T01:29:53.568Z,101500.17
2022-11-27T01:32:24.363Z,101507.09
2022-11-27T01:34:55.205Z,101496.80
2022-11-27T01:37:26.344Z,101501.95
2022-11-27T01:39:57.407Z,101502.78
2022-11-27T01:42:28.655Z,101502.83
2022-11-27T01:44:59.838Z,101496.89
2022-11-27T01:47:36.736Z,101502.08
2022-11-27T01:50:09.180Z,101498.66
2022-11-27T01:52:41.528Z,101496.98
2022-11-27T01:55:18.170Z,101508.16
2022-11-27T01:57:50.746Z,101511.61
2022-11-27T02:00:22.178Z,101507.36
2022-11-27T02:02:53.124Z,101506.52
2022-11-27T02:05:25.353Z,101502.22
2022-11-27T02:07:57.812Z,101497.03
2022-11-27T02:10:35.887Z,101499.59
2022-11-27T02:13:08.191Z,101509.08
2022-11-27T02:15:52.776Z,101507.36
2022-11-27T02:18:25.255Z,101503.09
2022-11-27T02:20:57.571Z,101503.95
2022-11-27T02:23:46.028Z,101504.78
2022-11-27T02:26:24.251Z,101507.36
2022-11-27T02:29:02.501Z,101503.95
2022-11-27T02:31:34.783Z,101507.53
2022-11-27T02:34:07.121Z,101504.03
2022-11-27T02:36:39.477Z,101510.02
2022-11-27T02:39:11.910Z,101510.91
2022-11-27T02:41:44.681Z,101511.75
2022-11-27T02:44:16.940Z,101513.47
2022-11-27T02:46:49.611Z,101514.41
2022-11-27T02:49:21.170Z,101519.55
2022-11-27T02:51:53.622Z,101515.30
2022-11-27T02:54:25.941Z,101520.45
2022-11-27T02:56:58.264Z,101525.63
2022-11-27T02:59:30.426Z,101520.53
2022-11-27T03:02:02.905Z,101524.03
2022-11-27T03:04:35.214Z,101533.53
2022-11-27T03:07:07.466Z,101528.42
2022-11-27T03:09:42.733Z,101524.08
2022-11-27T03:12:14.681Z,101524.21
2022-11-27T03:14:46.282Z,101537.03
2022-11-27T03:17:21.460Z,101526.74
2022-11-27T03:19:53.794Z,101525.01
2022-11-27T03:22:26.866Z,101529.27
2022-11-27T03:24:58.072Z,101531.00
2022-11-27T03:27:33.163Z,101531.80
2022-11-27T03:30:05.410Z,101531.80
2022-11-27T03:32:36.270Z,101531.80
2022-11-27T03:35:08.699Z,101530.16
2022-11-27T03:37:39.459Z,101531.05
2022-11-27T03:40:10.724Z,101531.13
2022-11-27T03:42:59.743Z,101526.03
2022-11-27T03:45:32.077Z,101526.03
2022-11-27T03:48:16.294Z,101522.66
2022-11-27T03:50:48.478Z,101520.17
2022-11-27T03:53:29.969Z,101518.48
2022-11-27T03:56:20.215Z,101509.91
2022-11-27T03:58:55.193Z,101513.38
2022-11-27T04:01:27.114Z,101520.30
2022-11-27T04:03:57.972Z,101516.03
2022-11-27T04:06:28.948Z,101518.66
2022-11-27T04:08:59.986Z,101522.11
2022-11-27T04:11:31.138Z,101521.31
2022-11-27T04:14:02.605Z,101531.66
2022-11-27T04:16:33.937Z,101521.44
2022-11-27T04:19:04.954Z,101530.05
2022-11-27T04:21:35.835Z,101530.89
2022-11-27T04:24:07.271Z,101527.48
2022-11-27T04:26:38.127Z,101530.17
2022-11-27T04:29:09.257Z,101529.29
2022-11-27T04:31:40.305Z,101524.14
2022-11-27T04:34:11.531Z,101523.30
2022-11-27T04:36:42.594Z,101531.14
2022-11-27T04:39:13.896Z,101528.65
2022-11-27T04:41:44.979Z,101544.09
2022-11-27T04:44:16.242Z,101530.38
2022-11-27T04:46:47.608Z,101529.58
2022-11-27T04:49:18.536Z,101540.80
2022-11-27T04:51:49.487Z,101538.30
2022-11-27T04:54:20.356Z,101529.81
2022-11-27T04:56:51.137Z,101531.59
2022-11-27T04:59:22.518Z,101531.59
2022-11-27T05:01:53.362Z,101535.09
2022-11-27T05:04:24.392Z,101532.55
2022-11-27T05:06:55.175Z,101534.28
2022-11-27T05:09:26.076Z,101530.94
2022-11-27T05:11:57.064Z,101533.55
2022-11-27T05:14:29.381Z,101540.48
2022-11-27T05:17:00.751Z,101543.17
2022-11-27T05:19:32.226Z,101543.17
2022-11-27T05:22:03.560Z,101538.06
2022-11-27T05:24:35.207Z,101541.56
2022-11-27T05:27:06.399Z,101539.83
2022-11-27T05:29:37.390Z,101545.91
2022-11-27T05:32:08.313Z,101542.48
2022-11-27T05:34:39.913Z,101547.64
2022-11-27T05:37:17.912Z,101548.60
2022-11-27T05:39:45.252Z,101552.87
2022-11-27T05:42:16.222Z,101551.98
2022-11-27T05:44:47.018Z,101548.59
2022-11-27T05:47:18.154Z,101558.91
2022-11-27T05:49:49.832Z,101557.25
2022-11-27T05:52:21.308Z,101563.33
2022-11-27T05:54:52.432Z,101564.25
2022-11-27T05:57:23.557Z,101557.48
2022-11-27T05:59:54.937Z,101562.67
2022-11-27T06:02:29.373Z,101560.98
2022-11-27T06:04:58.943Z,101562.75
2022-11-27T06:07:30.140Z,101563.70
2022-11-27T06:10:01.297Z,101565.48
2022-11-27T06:12:33.244Z,101565.52
2022-11-27T06:15:04.575Z,101559.58
2022-11-27T06:17:36.345Z,101563.92
2022-11-27T06:20:08.121Z,101561.35
2022-11-27T06:22:38.961Z,101562.23
2022-11-27T06:25:10.071Z,101564.00
2022-11-27T06:27:41.323Z,101556.34
2022-11-27T06:30:13.027Z,101560.69
2022-11-27T06:32:44.180Z,101554.71
2022-11-27T06:35:15.662Z,101565.10
2022-11-27T06:37:47.010Z,101559.20
2022-11-27T06:40:18.836Z,101561.81
2022-11-27T06:42:50.114Z,101556.72
2022-11-27T06:45:20.910Z,101561.14
2022-11-27T06:47:51.906Z,101558.63
2022-11-27T06:50:23.055Z,101551.87
2022-11-27T06:52:53.827Z,101557.98
2022-11-27T06:55:24.825Z,101559.78
2022-11-27T06:57:55.915Z,101564.19
2022-11-27T07:00:27.525Z,101568.56
2022-11-27T07:02:58.421Z,101564.35
2022-11-27T07:05:30.174Z,101568.76
2022-11-27T07:08:01.119Z,101562.87
2022-11-27T07:10:34.680Z,101566.39
2022-11-27T07:13:06.291Z,101574.20
2022-11-27T07:15:37.223Z,101571.69
2022-11-27T07:18:08.188Z,101569.11
2022-11-27T07:20:39.082Z,101566.55
2022-11-27T07:23:10.212Z,101576.94
2022-11-27T07:25:41.156Z,101569.25
2022-11-27T07:28:18.549Z,101571.05
2022-11-27T07:30:45.869Z,101565.91
2022-11-27T07:33:17.475Z,101565.11
2022-11-27T07:35:48.888Z,101560.95
2022-11-27T07:38:20.376Z,101560.97
2022-11-27T07:40:53.747Z,101556.74
2022-11-27T07:43:23.656Z,101552.54
2022-11-27T07:45:54.696Z,101558.61
2022-11-27T07:48:25.757Z,101554.38
2022-11-27T07:50:56.689Z,101557.92
2022-11-27T07:53:28.142Z,101561.48
2022-11-27T07:56:02.689Z,101558.95
2022-11-27T07:58:33.925Z,101565.02
2022-11-27T08:01:09.923Z,101569.37
2022-11-27T08:03:42.876Z,101567.66
2022-11-27T08:06:21.293Z,101566.81
2022-11-27T08:08:53.192Z,101561.64
2022-11-27T08:11:29.909Z,101565.11
2022-11-27T08:14:02.149Z,101564.25
2022-11-27T08:16:33.842Z,101567.81
2022-11-27T08:19:05.537Z,101564.42
2022-11-27T08:21:36.490Z,101561.09
2022-11-27T08:24:07.813Z,101555.16
2022-11-27T08:26:39.283Z,101558.69
2022-11-27T08:31:51.746Z,101558.01
2022-11-27T08:34:23.683Z,101544.27
2022-11-27T08:36:54.690Z,101548.67
2022-11-27T08:39:27.197Z,101556.56
2022-11-27T08:42:00.377Z,101548.06
2022-11-27T08:44:31.621Z,101552.47
2022-11-27T08:47:03.280Z,101545.59
2022-11-27T08:49:35.648Z,101544.80
2022-11-27T08:52:07.920Z,101547.47
2022-11-27T08:54:39.424Z,101546.66
2022-11-27T08:57:11.255Z,101551.00
2022-11-27T08:59:42.189Z,101553.70
2022-11-27T09:02:13.995Z,101552.90
2022-11-27T09:04:45.707Z,101547.77
2022-11-27T09:07:17.214Z,101552.98
2022-11-27T09:09:48.890Z,101553.03
2022-11-27T09:12:20.907Z,101549.63
2022-11-27T09:14:51.958Z,101554.84
2022-11-27T09:17:23.088Z,101546.22
2022-11-27T09:19:54.025Z,101548.81
2022-11-27T09:22:25.465Z,101543.61
2022-11-27T09:24:56.468Z,101542.78
2022-11-27T09:27:29.904Z,101541.92
2022-11-27T09:30:01.116Z,101541.94
2022-11-27T09:32:32.504Z,101541.91
2022-11-27T09:35:04.093Z,101544.50
2022-11-27T09:37:35.351Z,101543.61
2022-11-27T09:40:07.867Z,101541.87
2022-11-27T09:42:43.113Z,101541.86
2022-11-27T09:45:17.805Z,101545.31
2022-11-27T09:47:50.602Z,101538.37
2022-11-27T09:50:25.755Z,101545.27
2022-11-27T09:53:01.699Z,101546.08
2022-11-27T09:55:34.312Z,101543.48
2022-11-27T09:58:09.280Z,101541.73
2022-11-27T10:00:40.715Z,101550.39
2022-11-27T10:03:15.687Z,101542.62
2022-11-27T10:05:51.078Z,101542.63
2022-11-27T10:08:23.631Z,101548.73
2022-11-27T10:10:57.189Z,101542.70
2022-11-27T10:13:32.969Z,101536.70
2022-11-27T10:16:14.632Z,101543.66
2022-11-27T10:18:48.143Z,101551.48
2022-11-27T10:21:24.360Z,101553.28
2022-11-27T10:23:57.825Z,101553.33
2022-11-27T10:26:30.463Z,101555.98
2022-11-27T10:29:03.059Z,101560.34
2022-11-27T10:31:41.855Z,101557.81
2022-11-27T10:34:18.879Z,101553.48
2022-11-27T10:36:51.005Z,101552.63
2022-11-27T10:39:23.967Z,101552.66
2022-11-27T10:41:56.656Z,101550.92
2022-11-27T10:44:31.578Z,101550.90
2022-11-27T10:47:05.025Z,101546.58
2022-11-27T10:49:37.441Z,101552.63
2022-11-27T10:52:09.889Z,101544.88
2022-11-27T10:54:41.618Z,101544.91
2022-11-27T10:57:14.907Z,101547.50
2022-11-27T11:00:05.608Z,101556.10
2022-11-27T11:02:39.060Z,101551.77
2022-11-27T11:05:37.722Z,101541.39
2022-11-27T11:07:58.779Z,101559.56
2022-11-27T11:10:31.910Z,101544.02
2022-11-27T11:13:08.242Z,101551.82
2022-11-27T11:15:52.843Z,101558.71
2022-11-27T11:18:25.955Z,101554.36
2022-11-27T11:20:59.088Z,101559.49
2022-11-27T11:23:34.137Z,101555.15
2022-11-27T11:26:06.805Z,101553.38
2022-11-27T11:28:39.851Z,101560.27
2022-11-27T11:31:12.488Z,101558.48
2022-11-27T11:33:55.038Z,101556.70
2022-11-27T11:36:27.491Z,101560.98
2022-11-27T11:38:59.908Z,101556.58
2022-11-27T11:41:38.973Z,101562.56
2022-11-27T11:44:11.881Z,101565.11
2022-11-27T11:46:44.266Z,101568.53
2022-11-27T11:49:20.121Z,101562.44
2022-11-27T11:51:53.277Z,101564.16
2022-11-27T11:54:31.522Z,101562.44
2022-11-27T11:57:04.480Z,101560.67
2022-11-27T11:59:43.741Z,101569.28
2022-11-27T12:02:30.872Z,101572.72
2022-11-27T12:05:06.471Z,101569.25
2022-11-27T12:07:39.231Z,101557.94
2022-11-27T12:10:14.727Z,101558.77
2022-11-27T12:13:05.351Z,101561.23
2022-11-27T12:15:48.692Z,101559.36
2022-11-27T12:18:21.111Z,101565.30
2022-11-27T12:20:53.945Z,101570.34
2022-11-27T12:23:26.384Z,101565.86
2022-11-27T12:26:05.273Z,101578.70
2022-11-27T12:28:58.953Z,101577.77
2022-11-27T12:31:39.841Z,101582.84
2022-11-27T12:34:24.593Z,101574.11
2022-11-27T12:36:59.672Z,101585.26
2022-11-27T12:39:32.300Z,101582.66
2022-11-27T12:42:22.467Z,101581.77
2022-11-27T12:45:07.690Z,101591.23
2022-11-27T12:47:47.233Z,101590.33
2022-11-27T12:50:27.635Z,101590.28
2022-11-27T12:53:08.262Z,101593.72
2022-11-27T12:55:40.696Z,101591.16
2022-11-27T12:58:18.795Z,101598.77
2022-11-27T13:00:50.679Z,101598.69
2022-11-27T13:03:26.881Z,101592.58
2022-11-27T13:06:05.489Z,101603.78
2022-11-27T13:08:53.153Z,101602.02
2022-11-27T13:11:28.396Z,101600.25
2022-11-27T13:14:04.138Z,101608.80
2022-11-27T13:16:41.473Z,101599.35
2022-11-27T13:19:14.002Z,101600.18
2022-11-27T13:21:46.719Z,101603.64
2022-11-27T13:24:18.601Z,101603.59
2022-11-27T13:26:57.311Z,101598.42
2022-11-27T13:29:30.260Z,101602.77
2022-11-27T13:32:03.109Z,101597.48
2022-11-27T13:34:36.006Z,101598.33
2022-11-27T13:37:08.385Z,101599.22
2022-11-27T13:39:40.688Z,101603.50
2022-11-27T13:42:16.629Z,101593.98
2022-11-27T13:44:49.127Z,101593.98
2022-11-27T13:47:21.844Z,101595.69
2022-11-27T13:50:03.282Z,101598.27
2022-11-27T13:52:35.440Z,101603.39
2022-11-27T13:55:08.036Z,101611.11
2022-11-27T13:57:39.690Z,101599.84
2022-11-27T14:00:13.561Z,101597.20
2022-11-27T14:02:49.461Z,101603.98
2022-11-27T14:05:22.425Z,101603.13
2022-11-27T14:07:55.489Z,101607.32
2022-11-27T14:10:28.146Z,101609.02
2022-11-27T14:13:06.209Z,101615.95
2022-11-27T14:15:38.408Z,101603.86
2022-11-27T14:18:20.515Z,101609.02
2022-11-27T14:20:53.358Z,101611.61
2022-11-27T14:23:29.090Z,101603.83
2022-11-27T14:26:14.793Z,101612.52
2022-11-27T14:28:44.685Z,101615.98
2022-11-27T14:31:33.803Z,101620.36
2022-11-27T14:34:16.117Z,101615.07
2022-11-27T14:36:38.458Z,101614.34
2022-11-27T14:39:11.189Z,101612.58
2022-11-27T14:41:43.078Z,101615.16
2022-11-27T14:44:16.077Z,101614.22
2022-11-27T14:46:47.591Z,101617.74
2022-11-27T14:49:20.823Z,101623.70
2022-11-27T14:51:52.280Z,101620.23
2022-11-27T14:54:30.853Z,101617.59
2022-11-27T14:57:02.724Z,101615.00
2022-11-27T14:59:34.074Z,101608.11
2022-11-27T15:02:06.369Z,101608.08
2022-11-27T15:04:38.826Z,101602.95
2022-11-27T15:07:23.268Z,101605.50
2022-11-27T15:09:56.113Z,101612.40
2022-11-27T15:12:35.048Z,101609.81
2022-11-27T15:15:10.530Z,101602.13
2022-11-27T15:17:43.336Z,101605.56
2022-11-27T15:20:16.279Z,101605.53
2022-11-27T15:22:53.101Z,101602.95
2022-11-27T15:25:31.407Z,101603.83
2022-11-27T15:28:02.748Z,101600.39
2022-11-27T15:30:34.774Z,101602.16
2022-11-27T15:33:06.576Z,101603.95
2022-11-27T15:35:37.871Z,101603.09
2022-11-27T15:38:11.011Z,101606.63
2022-11-27T15:40:42.807Z,101604.86
2022-11-27T15:43:15.535Z,101602.27
2022-11-27T15:45:47.420Z,101604.01
2022-11-27T15:48:19.641Z,101608.27
2022-11-27T15:50:52.044Z,101604.86
2022-11-27T15:53:23.699Z,101606.65
2022-11-27T15:55:55.399Z,101606.59
2022-11-27T15:58:26.270Z,101613.42
2022-11-27T16:00:57.723Z,101609.02
2022-11-27T16:03:29.335Z,101622.78
2022-11-27T16:06:04.470Z,101612.42
2022-11-27T16:08:36.019Z,101625.31
2022-11-27T16:11:08.542Z,101627.02
2022-11-27T16:13:39.656Z,101635.64
2022-11-27T16:16:11.426Z,101628.70
2022-11-27T16:18:42.717Z,101633.06
2022-11-27T16:21:14.915Z,101629.66
2022-11-27T16:23:46.531Z,101627.89
2022-11-27T16:26:17.928Z,101624.39
2022-11-27T16:28:49.082Z,101628.71
2022-11-27T16:31:21.626Z,101630.41
2022-11-27T16:33:53.363Z,101644.17
2022-11-27T16:36:25.877Z,101646.79
2022-11-27T16:38:57.193Z,101640.77
2022-11-27T16:41:28.463Z,101645.94
2022-11-27T16:44:00.385Z,101639.98
2022-11-27T16:46:31.783Z,101633.97
2022-11-27T16:49:04.965Z,101637.41
2022-11-27T16:51:38.099Z,101636.55
2022-11-27T16:54:11.496Z,101643.39
2022-11-27T16:56:44.292Z,101633.91
2022-11-27T16:59:16.501Z,101645.09
2022-11-27T17:01:47.516Z,101640.71
2022-11-27T17:04:19.630Z,101639.86
2022-11-27T17:06:50.900Z,101639.89
2022-11-27T17:09:23.469Z,101647.61
2022-11-27T17:11:54.953Z,101647.61
2022-11-27T17:14:27.772Z,101646.79
2022-11-27T17:16:58.813Z,101636.45
2022-11-27T17:19:31.739Z,101641.66
2022-11-27T17:22:03.703Z,101644.99
2022-11-27T17:24:36.127Z,101651.04
2022-11-27T17:27:08.530Z,101649.27
2022-11-27T17:29:40.175Z,101650.13
2022-11-27T17:32:13.079Z,101650.13
2022-11-27T17:34:45.338Z,101644.05
2022-11-27T17:37:16.673Z,101646.63
2022-11-27T17:39:48.035Z,101650.03
2022-11-27T17:42:22.681Z,101648.27
2022-11-27T17:44:52.035Z,101648.30
2022-11-27T17:47:23.480Z,101655.02
2022-11-27T17:49:54.831Z,101648.91
2022-11-27T17:52:25.747Z,101657.44
2022-11-27T17:54:56.764Z,101661.68
2022-11-27T17:57:27.738Z,101655.64
2022-11-27T17:59:59.012Z,101659.10
2022-11-27T18:02:32.148Z,101653.09
2022-11-27T18:05:03.295Z,101653.05
2022-11-27T18:07:34.128Z,101651.49
2022-11-27T18:10:05.582Z,101659.10
2022-11-27T18:12:36.635Z,101659.91
2022-11-27T18:15:09.794Z,101658.22
2022-11-27T18:17:41.338Z,101657.30
2022-11-27T18:20:12.231Z,101655.60
2022-11-27T18:22:43.108Z,101657.23
2022-11-27T18:25:14.136Z,101647.79
2022-11-27T18:27:45.457Z,101652.92
2022-11-27T18:30:16.500Z,101652.92
2022-11-27T18:32:47.479Z,101662.39
2022-11-27T18:35:18.737Z,101658.25
2022-11-27T18:37:49.564Z,101650.44
2022-11-27T18:40:20.510Z,101652.10
2022-11-27T18:42:51.802Z,101652.17
2022-11-27T18:45:33.028Z,101655.60
2022-11-27T18:47:55.451Z,101652.14
2022-11-27T18:50:29.621Z,101669.36
2022-11-27T18:52:59.734Z,101653.87
2022-11-27T18:55:32.118Z,101652.10
2022-11-27T18:58:02.967Z,101658.97
2022-11-27T19:00:36.575Z,101658.92
2022-11-27T19:03:07.501Z,101664.97
2022-11-27T19:05:38.317Z,101668.47
2022-11-27T19:08:10.449Z,101663.24
2022-11-27T19:10:42.348Z,101671.05
2022-11-27T19:13:13.524Z,101671.05
2022-11-27T19:15:46.166Z,101676.18
2022-11-27T19:18:17.427Z,101667.59
2022-11-27T19:20:48.639Z,101668.47
2022-11-27T19:23:19.822Z,101670.17
2022-11-27T19:25:50.820Z,101669.36
2022-11-27T19:28:23.122Z,101668.51
2022-11-27T19:30:54.083Z,101676.32
2022-11-27T19:33:25.468Z,101679.75
2022-11-27T19:35:58.244Z,101674.63
2022-11-27T19:38:29.668Z,101674.55
2022-11-27T19:41:00.590Z,101672.82
2022-11-27T19:43:31.617Z,101669.36
2022-11-27T19:46:02.840Z,101669.28
2022-11-27T19:48:33.851Z,101668.41
2022-11-27T19:51:04.728Z,101666.78
2022-11-27T19:53:35.629Z,101670.20
2022-11-27T19:56:07.725Z,101671.05
2022-11-27T19:58:38.985Z,101675.44
2022-11-27T20:01:11.859Z,101683.95
2022-11-27T20:03:43.275Z,101678.87
2022-11-27T20:06:15.280Z,101675.33
2022-11-27T20:08:46.900Z,101673.56
2022-11-27T20:11:19.622Z,101670.13
2022-11-27T20:13:50.791Z,101679.54
2022-11-27T20:16:22.602Z,101688.20
2022-11-27T20:18:53.631Z,101684.77
2022-11-27T20:21:27.085Z,101691.63
2022-11-27T20:23:58.361Z,101689.02
2022-11-27T20:26:30.888Z,101689.05
2022-11-27T20:29:03.095Z,101687.31
2022-11-27T20:31:37.612Z,101694.21
2022-11-27T20:34:09.537Z,101701.11
2022-11-27T20:36:41.122Z,101697.72
2022-11-27T20:39:17.717Z,101697.72
2022-11-27T20:41:45.589Z,101697.14
2022-11-27T20:44:16.844Z,101693.47
2022-11-27T20:46:48.112Z,101693.44
2022-11-27T20:49:20.744Z,101702.88
2022-11-27T20:51:51.706Z,101704.50
2022-11-27T20:54:26.288Z,101704.53
2022-11-27T20:56:57.137Z,101703.61
2022-11-27T20:59:28.041Z,101710.55
2022-11-27T21:02:01.578Z,101704.50
2022-11-27T21:04:33.339Z,101713.12
2022-11-27T21:07:05.011Z,101707.97
2022-11-27T21:09:36.104Z,101707.19
2022-11-27T21:12:07.093Z,101706.23
2022-11-27T21:14:38.407Z,101709.70
2022-11-27T21:17:09.731Z,101702.80
2022-11-27T21:19:41.160Z,101707.97
2022-11-27T21:22:12.331Z,101705.42
2022-11-27T21:24:43.740Z,101709.70
2022-11-27T21:27:14.914Z,101709.77
2022-11-27T21:29:46.550Z,101714.05
2022-11-27T21:32:21.029Z,101710.66
2022-11-27T21:34:52.433Z,101702.06
2022-11-27T21:37:24.802Z,101708.29
2022-11-27T21:39:56.569Z,101712.45
2022-11-27T21:42:29.383Z,101706.34
2022-11-27T21:45:00.777Z,101708.92
2022-11-27T21:47:35.086Z,101708.08
2022-11-27T21:50:06.511Z,101714.13
2022-11-27T21:52:37.363Z,101719.25
2022-11-27T21:55:12.125Z,101703.83
2022-11-27T21:57:41.856Z,101709.84
2022-11-27T22:00:13.020Z,101708.99
2022-11-27T22:02:47.148Z,101709.84
2022-11-27T22:05:18.823Z,101719.36
2022-11-27T22:10:40.767Z,101715.89
2022-11-27T22:13:11.704Z,101721.94
2022-11-27T22:15:42.542Z,101715.18
2022-11-27T22:18:13.757Z,101725.47
2022-11-27T22:20:44.655Z,101723.81
2022-11-27T22:23:15.660Z,101722.89
2022-11-27T22:25:46.739Z,101717.66
2022-11-27T22:28:17.924Z,101717.87
2022-11-27T22:30:49.570Z,101721.27
2022-11-27T22:33:20.931Z,101722.82
2022-11-27T22:35:51.751Z,101721.90
2022-11-27T22:38:22.752Z,101719.28
2022-11-27T22:40:55.417Z,101724.55
2022-11-27T22:43:26.387Z,101717.80
2022-11-27T22:45:57.370Z,101716.06
2022-11-27T22:48:28.663Z,101726.36
2022-11-27T22:51:00.132Z,101719.46
2022-11-27T22:53:31.670Z,101722.01
2022-11-27T22:56:06.660Z,101723.70
2022-11-27T22:58:41.338Z,101722.08
2022-11-27T23:01:12.098Z,101727.09
2022-11-27T23:03:43.197Z,101722.75
2022-11-27T23:06:15.992Z,101724.48
2022-11-27T23:08:47.380Z,101726.29
2022-11-27T23:11:22.808Z,101729.68
2022-11-27T23:13:54.636Z,101736.65
2022-11-27T23:16:25.869Z,101739.19
2022-11-27T23:18:57.547Z,101739.19
2022-11-27T23:21:28.370Z,101734.91
2022-11-27T23:23:59.471Z,101734.06
2022-11-27T23:26:30.572Z,101730.70
2022-11-27T23:29:01.540Z,101737.64
2022-11-27T23:31:34.784Z,101736.69
2022-11-27T23:34:07.748Z,101746.02
2022-11-27T23:36:38.843Z,101742.59
2022-11-27T23:39:11.018Z,101746.83
2022-11-27T23:41:42.393Z,101740.81
2022-11-27T23:44:13.295Z,101744.28
2022-11-27T23:46:44.161Z,101749.45
2022-11-27T23:49:15.190Z,101745.20
2022-11-27T23:51:46.152Z,101751.18
2022-11-27T23:54:17.066Z,101747.86
2022-11-27T23:56:49.677Z,101760.91
2022-11-27T23:59:20.791Z,101762.61
